Time;durP1;ratioP1;P1;durP2;ratioP2;P2;SDS_P1;SDS_P2;PMS_P1;PMS_P2;Temp;Humidity;BMP_temperature;BMP_pressure;BME280_temperature;BME280_humidity;BME280_pressure;Samples;Min_cycle;Max_cycle;Signal;HPM_P1;HPM_P2
2024/02/28 00:02:05;;;;;;;32.83;14.10;;;5.80;90.30;;;;;;5093047;28;20043;-32
2024/02/28 00:04:31;;;;;;;39.05;14.25;;;5.70;90.20;;;;;;5092905;28;20020;-29
2024/02/28 00:06:57;;;;;;;44.22;14.18;;;5.70;90.30;;;;;;5093181;28;20018;-31
2024/02/28 00:09:22;;;;;;;28.75;14.15;;;5.70;90.30;;;;;;5093318;28;20123;-29
2024/02/28 00:11:48;;;;;;;30.85;14.50;;;5.70;90.30;;;;;;5092875;28;20394;-31
2024/02/28 00:14:14;;;;;;;30.63;15.27;;;5.60;90.30;;;;;;5092725;28;20024;-30
2024/02/28 00:16:43;;;;;;;38.15;14.57;;;5.60;90.30;;;;;;5092719;28;20028;-29
2024/02/28 00:19:11;;;;;;;38.30;14.60;;;5.60;90.30;;;;;;5092815;28;20024;-29
2024/02/28 00:21:37;;;;;;;28.10;14.40;;;5.70;90.40;;;;;;5092779;28;20024;-30
2024/02/28 00:24:03;;;;;;;35.75;15.45;;;5.60;90.30;;;;;;5092628;28;20031;-35
2024/02/28 00:26:28;;;;;;;27.27;14.48;;;5.70;90.40;;;;;;5092475;28;20028;-34
2024/02/28 00:28:54;;;;;;;27.30;14.88;;;5.60;90.30;;;;;;5092575;28;20016;-31
2024/02/28 00:31:21;;;;;;;25.85;14.35;;;5.60;90.40;;;;;;5091262;28;20031;-31
2024/02/28 00:33:47;;;;;;;26.38;14.80;;;5.60;90.40;;;;;;5092532;28;20073;-33
2024/02/28 00:36:12;;;;;;;25.63;14.15;;;5.60;90.40;;;;;;5092561;28;20020;-34
2024/02/28 00:38:38;;;;;;;22.92;13.63;;;5.60;90.40;;;;;;5091925;28;20028;-33
2024/02/28 00:41:04;;;;;;;25.58;14.70;;;5.70;90.40;;;;;;5092772;28;20052;-30
2024/02/28 00:43:29;;;;;;;25.05;14.43;;;5.70;90.40;;;;;;5092394;28;20028;-32
2024/02/28 00:45:55;;;;;;;27.63;14.57;;;5.70;90.40;;;;;;5092109;28;20055;-31
2024/02/28 00:48:22;;;;;;;27.77;14.30;;;5.70;90.40;;;;;;5092366;28;20024;-30
2024/02/28 00:50:47;;;;;;;26.02;14.52;;;5.70;90.40;;;;;;5092043;28;20017;-30
2024/02/28 00:53:13;;;;;;;27.35;15.45;;;5.70;90.30;;;;;;5092580;28;20026;-32
2024/02/28 00:55:39;;;;;;;25.20;13.98;;;5.70;90.40;;;;;;5092084;28;20073;-33
2024/02/28 00:58:04;;;;;;;29.02;16.20;;;5.70;90.30;;;;;;5092235;28;20028;-31
2024/02/28 01:00:30;;;;;;;29.48;15.18;;;5.80;90.40;;;;;;5092046;28;20431;-33
2024/02/28 01:02:55;;;;;;;28.25;15.38;;;5.80;90.40;;;;;;5090541;28;20028;-32
2024/02/28 01:05:21;;;;;;;25.83;15.02;;;5.80;90.30;;;;;;5091792;28;20035;-31
2024/02/28 01:07:47;;;;;;;31.05;15.65;;;5.80;90.30;;;;;;5092009;28;20073;-30
2024/02/28 01:10:12;;;;;;;28.65;16.05;;;5.80;90.30;;;;;;5092216;28;20012;-30
2024/02/28 01:12:38;;;;;;;27.77;15.75;;;5.80;90.30;;;;;;5090331;28;20012;-33
2024/02/28 01:15:04;;;;;;;25.65;14.98;;;5.90;90.30;;;;;;5091670;28;20474;-37
2024/02/28 01:17:30;;;;;;;27.40;14.95;;;5.90;90.30;;;;;;5092118;28;20062;-33
2024/02/28 01:19:55;;;;;;;28.40;15.90;;;5.90;90.30;;;;;;5091893;28;20503;-37
2024/02/28 01:22:21;;;;;;;25.73;15.10;;;5.90;90.30;;;;;;5091761;28;20028;-32
2024/02/28 01:24:47;;;;;;;27.80;15.70;;;5.90;90.30;;;;;;5091440;28;20520;-32
2024/02/28 01:27:12;;;;;;;29.15;15.90;;;5.90;90.30;;;;;;5091952;28;20069;-36
2024/02/28 01:29:38;;;;;;;29.85;15.90;;;5.90;90.30;;;;;;5091504;28;20032;-33
2024/02/28 01:32:04;;;;;;;26.40;15.32;;;5.90;90.30;;;;;;5091541;28;20020;-33
2024/02/28 01:34:29;;;;;;;27.95;15.63;;;5.90;90.30;;;;;;5091217;28;20458;-30
2024/02/28 01:36:55;;;;;;;27.27;16.15;;;5.90;90.30;;;;;;5091639;28;20051;-30
2024/02/28 01:39:20;;;;;;;27.00;14.85;;;5.90;90.30;;;;;;5091467;28;20465;-32
2024/02/28 01:41:57;;;;;;;28.55;16.55;;;5.90;90.20;;;;;;5091435;28;20020;-31
2024/02/28 01:44:23;;;;;;;30.98;17.05;;;5.90;90.20;;;;;;5091476;28;20034;-30
2024/02/28 01:46:49;;;;;;;32.30;17.35;;;5.90;90.20;;;;;;5091316;28;20020;-33
2024/02/28 01:49:16;;;;;;;31.20;17.33;;;5.80;90.20;;;;;;5093857;28;20024;-32
2024/02/28 01:51:41;;;;;;;31.63;16.92;;;5.80;90.40;;;;;;5096672;28;20050;-30
2024/02/28 01:54:08;;;;;;;28.48;16.20;;;5.70;90.30;;;;;;5097911;28;20016;-31
2024/02/28 01:56:34;;;;;;;28.77;16.88;;;5.70;90.30;;;;;;5098172;28;20545;-32
2024/02/28 01:59:01;;;;;;;28.08;16.77;;;5.80;90.30;;;;;;5098349;28;20540;-32
2024/02/28 02:01:27;;;;;;;30.95;16.40;;;5.80;90.30;;;;;;5097500;28;20016;-33
2024/02/28 02:03:54;;;;;;;48.03;16.77;;;5.80;90.30;;;;;;5098221;28;20032;-31
2024/02/28 02:06:20;;;;;;;62.33;18.00;;;5.80;90.30;;;;;;5097714;28;20019;-31
2024/02/28 02:08:47;;;;;;;51.40;18.50;;;5.80;90.20;;;;;;5098052;28;20077;-31
2024/02/28 02:11:15;;;;;;;29.30;17.35;;;5.70;90.20;;;;;;5098226;28;20372;-45
2024/02/28 02:13:50;;;;;;;39.15;17.65;;;5.60;90.30;;;;;;5098065;28;20016;-45
2024/02/28 02:16:16;;;;;;;42.25;16.45;;;5.60;90.40;;;;;;5097859;28;20310;-46
2024/02/28 02:18:42;;;;;;;37.33;17.63;;;5.60;90.40;;;;;;5098089;28;20031;-46
2024/02/28 02:21:11;;;;;;;57.10;16.30;;;5.60;90.40;;;;;;5098068;28;20028;-44
2024/02/28 02:23:41;;;;;;;39.80;15.30;;;5.50;90.40;;;;;;5098085;28;20024;-31
2024/02/28 02:26:07;;;;;;;38.95;16.30;;;5.50;90.40;;;;;;5096666;28;20031;-31
2024/02/28 02:28:32;;;;;;;37.60;16.90;;;5.50;90.40;;;;;;5098218;28;20024;-44
2024/02/28 02:30:58;;;;;;;31.88;15.98;;;5.50;90.50;;;;;;5097752;28;20022;-40
2024/02/28 02:33:23;;;;;;;47.47;16.63;;;5.60;90.50;;;;;;5097800;28;20056;-45
2024/02/28 02:35:49;;;;;;;30.90;15.07;;;5.60;90.50;;;;;;5096227;28;20040;-44
2024/02/28 02:38:15;;;;;;;29.60;15.45;;;5.60;90.50;;;;;;5097717;28;20028;-46
2024/02/28 02:40:41;;;;;;;30.35;15.15;;;5.60;90.50;;;;;;5097763;28;20103;-46
2024/02/28 02:43:06;;;;;;;49.45;16.10;;;5.60;90.50;;;;;;5097611;28;20032;-42
2024/02/28 02:45:32;;;;;;;48.80;14.85;;;5.60;90.40;;;;;;5097411;28;20020;-46
2024/02/28 02:47:57;;;;;;;47.72;15.55;;;5.50;90.40;;;;;;5096318;28;20084;-45
2024/02/28 02:50:23;;;;;;;43.80;14.95;;;5.50;90.50;;;;;;5097634;28;20055;-45
2024/02/28 02:52:48;;;;;;;42.78;15.27;;;5.40;90.50;;;;;;5097627;28;20311;-45
2024/02/28 02:55:15;;;;;;;31.10;14.27;;;5.30;90.50;;;;;;5097678;28;20161;-42
2024/02/28 02:57:40;;;;;;;39.50;15.57;;;5.30;90.60;;;;;;5097714;28;20165;-46
2024/02/28 03:00:09;;;;;;;39.75;16.13;;;5.40;90.70;;;;;;5097243;28;20043;-43
2024/02/28 03:02:37;;;;;;;32.65;14.30;;;5.40;90.70;;;;;;5093386;28;20535;-43
2024/02/28 03:05:03;;;;;;;32.50;14.80;;;5.40;90.60;;;;;;5092771;28;20108;-46
2024/02/28 03:07:28;;;;;;;26.05;14.27;;;5.40;90.70;;;;;;5094162;28;20441;-46
2024/02/28 03:09:54;;;;;;;32.38;14.57;;;5.40;91.00;;;;;;5094215;28;20020;-45
2024/02/28 03:12:21;;;;;;;36.83;14.55;;;5.50;90.70;;;;;;5094024;28;20025;-41
2024/02/28 03:14:48;;;;;;;46.92;15.25;;;5.50;90.70;;;;;;5093976;28;20531;-46
2024/02/28 03:17:15;;;;;;;38.85;14.23;;;5.40;90.60;;;;;;5094484;28;20018;-46
2024/02/28 03:19:41;;;;;;;30.23;14.23;;;5.40;90.60;;;;;;5094490;28;20023;-30
2024/02/28 03:22:06;;;;;;;26.83;15.20;;;5.40;90.60;;;;;;5093136;28;20078;-34
2024/02/28 03:24:35;;;;;;;28.83;13.43;;;5.30;90.60;;;;;;5094192;28;20020;-35
2024/02/28 03:27:01;;;;;;;28.58;13.60;;;5.30;90.70;;;;;;5094363;28;20055;-32
2024/02/28 03:29:27;;;;;;;21.88;12.93;;;5.30;90.70;;;;;;5093789;28;20511;-45
2024/02/28 03:31:53;;;;;;;30.38;14.80;;;5.30;90.70;;;;;;5093995;28;20052;-46
2024/02/28 03:34:18;;;;;;;29.38;14.07;;;5.30;90.70;;;;;;5093374;28;20124;-46
2024/02/28 03:36:44;;;;;;;28.02;14.32;;;5.40;90.70;;;;;;5093568;28;20032;-46
2024/02/28 03:39:10;;;;;;;25.00;13.52;;;5.30;90.70;;;;;;5093949;28;20376;-45
2024/02/28 03:41:36;;;;;;;28.83;14.10;;;5.40;90.70;;;;;;5093663;28;20024;-44
2024/02/28 03:44:01;;;;;;;29.23;15.15;;;5.40;90.70;;;;;;5093394;28;20504;-43
2024/02/28 03:46:27;;;;;;;29.77;13.75;;;5.40;90.70;;;;;;5093733;28;20036;-44
2024/02/28 03:48:52;;;;;;;24.52;14.48;;;5.40;90.70;;;;;;5093659;28;20031;-45
2024/02/28 03:51:18;;;;;;;27.75;15.82;;;5.40;90.70;;;;;;5093395;28;20029;-44
2024/02/28 03:53:43;;;;;;;34.72;17.63;;;5.40;90.70;;;;;;5093168;28;20028;-44
2024/02/28 03:56:09;;;;;;;35.10;18.17;;;5.30;90.70;;;;;;5093004;28;20035;-44
2024/02/28 03:58:35;;;;;;;38.33;19.02;;;5.30;91.00;;;;;;5093008;28;20111;-44
2024/02/28 04:01:01;;;;;;;39.28;19.40;;;5.30;90.70;;;;;;5091354;28;20032;-44
2024/02/28 04:03:26;;;;;;;39.92;18.73;;;5.30;90.70;;;;;;5093061;28;20438;-45
2024/02/28 04:05:52;;;;;;;34.97;17.70;;;5.30;90.70;;;;;;5092930;28;20034;-43
2024/02/28 04:08:18;;;;;;;32.35;17.63;;;5.30;90.70;;;;;;5093034;28;20069;-31
2024/02/28 04:10:43;;;;;;;32.25;16.65;;;5.30;91.00;;;;;;5091696;28;20016;-30
2024/02/28 04:13:09;;;;;;;32.40;16.80;;;5.30;90.70;;;;;;5092578;28;20028;-31
2024/02/28 04:15:34;;;;;;;28.92;14.63;;;5.30;90.70;;;;;;5092882;28;20035;-30
2024/02/28 04:18:00;;;;;;;30.00;14.85;;;5.30;90.70;;;;;;5092790;28;20028;-32
2024/02/28 04:20:26;;;;;;;25.08;14.30;;;5.30;90.70;;;;;;5093137;28;20028;-30
2024/02/28 04:22:51;;;;;;;26.92;13.70;;;5.30;90.70;;;;;;5092798;28;20397;-31
2024/02/28 04:25:17;;;;;;;22.95;13.80;;;5.30;91.00;;;;;;5092641;28;20089;-30
2024/02/28 04:27:43;;;;;;;26.08;13.77;;;5.30;90.70;;;;;;5092958;28;20020;-30
2024/02/28 04:30:09;;;;;;;22.98;13.30;;;5.30;90.70;;;;;;5092881;28;20028;-30
2024/02/28 04:32:36;;;;;;;25.27;13.98;;;5.30;90.70;;;;;;5093387;28;20032;-30
2024/02/28 04:35:02;;;;;;;25.55;13.48;;;5.30;90.70;;;;;;5092720;28;20591;-31
2024/02/28 04:37:28;;;;;;;24.40;12.65;;;5.30;90.70;;;;;;5092825;28;20044;-31
2024/02/28 04:39:54;;;;;;;24.45;13.45;;;5.30;90.70;;;;;;5092830;28;20027;-45
2024/02/28 04:42:19;;;;;;;26.75;12.88;;;5.30;90.60;;;;;;5092507;28;20054;-44
2024/02/28 04:44:45;;;;;;;22.40;13.90;;;5.30;90.60;;;;;;5092267;28;20031;-44
2024/02/28 04:47:11;;;;;;;25.05;13.35;;;5.30;90.60;;;;;;5090965;28;20099;-43
2024/02/28 04:49:38;;;;;;;23.95;14.20;;;5.30;90.60;;;;;;5092511;28;20380;-44
2024/02/28 04:52:04;;;;;;;23.42;13.63;;;5.20;90.60;;;;;;5092399;28;20032;-44
2024/02/28 04:54:30;;;;;;;20.65;13.38;;;5.20;90.70;;;;;;5092049;28;20043;-44
2024/02/28 04:56:56;;;;;;;20.85;13.27;;;5.20;90.70;;;;;;5092023;28;20020;-45
2024/02/28 04:59:21;;;;;;;39.08;12.98;;;5.20;90.70;;;;;;5092055;28;20028;-46
2024/02/28 05:01:47;;;;;;;20.23;12.27;;;5.20;90.70;;;;;;5092191;28;20129;-42
2024/02/28 05:04:13;;;;;;;23.13;12.95;;;5.20;90.70;;;;;;5092275;28;20020;-48
2024/02/28 05:06:39;;;;;;;22.20;12.45;;;5.20;90.70;;;;;;5091971;28;20097;-34
2024/02/28 05:09:05;;;;;;;22.20;12.65;;;5.20;90.70;;;;;;5092301;28;20016;-33
2024/02/28 05:11:30;;;;;;;19.95;12.70;;;5.10;90.70;;;;;;5091786;28;20020;-33
2024/02/28 05:13:56;;;;;;;24.30;12.85;;;5.10;90.70;;;;;;5091768;28;20023;-33
2024/02/28 05:16:21;;;;;;;21.52;13.93;;;5.10;90.70;;;;;;5091786;28;20024;-34
2024/02/28 05:18:47;;;;;;;22.08;12.98;;;5.10;90.70;;;;;;5091772;28;20031;-34
2024/02/28 05:21:13;;;;;;;26.10;13.68;;;5.10;90.80;;;;;;5092065;28;20055;-35
2024/02/28 05:23:39;;;;;;;24.42;13.02;;;5.10;90.70;;;;;;5091149;28;20027;-36
2024/02/28 05:26:06;;;;;;;24.05;13.52;;;5.00;90.70;;;;;;5091632;28;20484;-33
2024/02/28 05:28:35;;;;;;;20.58;12.98;;;5.10;90.70;;;;;;5091781;28;20019;-34
2024/02/28 05:31:22;;;;;;;20.58;12.75;;;5.10;90.70;;;;;;5091731;28;20024;-34
2024/02/28 05:33:49;;;;;;;24.85;13.35;;;5.10;90.70;;;;;;5090593;28;20115;-34
2024/02/28 05:36:15;;;;;;;20.00;11.38;;;5.00;90.70;;;;;;5091277;28;20106;-33
2024/02/28 05:38:41;;;;;;;21.98;13.25;;;5.00;90.70;;;;;;5091511;28;20047;-34
2024/02/28 05:41:06;;;;;;;25.08;12.93;;;5.00;90.70;;;;;;5091549;28;20472;-34
2024/02/28 05:43:32;;;;;;;24.02;13.48;;;5.00;90.70;;;;;;5091279;28;20477;-35
2024/02/28 05:45:57;;;;;;;23.02;13.23;;;5.00;90.70;;;;;;5089997;28;20031;-34
2024/02/28 05:48:23;;;;;;;20.73;13.18;;;5.00;90.70;;;;;;5091411;28;20122;-34
2024/02/28 05:50:48;;;;;;;20.73;13.38;;;5.00;90.70;;;;;;5091405;28;20373;-34
2024/02/28 05:53:14;;;;;;;22.20;13.38;;;5.00;90.70;;;;;;5090206;28;20113;-34
2024/02/28 05:55:39;;;;;;;21.17;13.38;;;5.00;90.70;;;;;;5091246;28;20020;-32
2024/02/28 05:58:05;;;;;;;19.65;12.40;;;5.00;90.70;;;;;;5091449;28;20387;-35
2024/02/28 06:00:30;;;;;;;20.70;12.57;;;5.00;90.70;;;;;;5091437;28;20458;-33
2024/02/28 06:02:56;;;;;;;23.40;13.48;;;5.00;90.70;;;;;;5091097;28;20024;-33
2024/02/28 06:05:22;;;;;;;22.02;13.75;;;5.00;90.70;;;;;;5091225;28;20016;-34
2024/02/28 06:07:47;;;;;;;21.63;13.95;;;5.00;90.70;;;;;;5091252;28;20024;-34
2024/02/28 06:10:13;;;;;;;18.38;11.98;;;5.00;90.70;;;;;;5091302;28;20472;-34
2024/02/28 06:12:39;;;;;;;19.02;12.68;;;5.00;90.70;;;;;;5091127;28;20410;-34
2024/02/28 06:15:04;;;;;;;18.00;12.40;;;5.00;90.70;;;;;;5091234;28;20035;-35
2024/02/28 06:17:30;;;;;;;20.15;12.02;;;5.00;90.70;;;;;;5091239;28;20064;-34
2024/02/28 06:19:56;;;;;;;19.02;11.77;;;4.90;90.70;;;;;;5091029;28;20028;-33
2024/02/28 06:22:21;;;;;;;17.70;12.23;;;4.90;90.70;;;;;;5091429;28;20031;-34
2024/02/28 06:24:47;;;;;;;18.35;11.10;;;4.80;90.70;;;;;;5091139;28;20039;-33
2024/02/28 06:27:13;;;;;;;20.35;11.63;;;4.80;90.70;;;;;;5091424;28;20043;-35
2024/02/28 06:29:41;;;;;;;17.30;12.23;;;4.70;90.70;;;;;;5091391;28;20024;-42
2024/02/28 06:32:07;;;;;;;16.55;11.48;;;4.70;90.80;;;;;;5091038;28;20051;-35
2024/02/28 06:34:33;;;;;;;19.27;11.25;;;4.70;90.80;;;;;;5090822;28;20563;-35
2024/02/28 06:36:59;;;;;;;17.65;10.32;;;4.70;90.80;;;;;;5093156;28;20103;-36
2024/02/28 06:39:24;;;;;;;16.83;11.10;;;4.60;90.80;;;;;;5094848;28;20035;-34
2024/02/28 06:41:51;;;;;;;15.75;10.82;;;4.60;90.80;;;;;;5095111;28;20028;-34
2024/02/28 06:44:18;;;;;;;16.65;11.63;;;4.60;90.80;;;;;;5094901;28;20423;-33
2024/02/28 06:46:44;;;;;;;16.23;11.00;;;4.60;90.80;;;;;;5094927;28;20107;-34
2024/02/28 06:49:09;;;;;;;15.88;11.30;;;4.60;90.80;;;;;;5094691;28;20077;-34
2024/02/28 06:51:35;;;;;;;18.27;11.77;;;4.60;90.80;;;;;;5094608;28;20046;-34
2024/02/28 06:54:00;;;;;;;15.18;10.77;;;4.60;90.80;;;;;;5094604;28;20024;-34
2024/02/28 06:56:26;;;;;;;16.30;10.88;;;4.60;90.80;;;;;;5093084;28;20556;-34
2024/02/28 06:58:52;;;;;;;17.80;10.98;;;4.60;90.80;;;;;;5093124;28;20024;-34
2024/02/28 07:01:18;;;;;;;17.80;11.30;;;4.60;90.80;;;;;;5094607;28;20103;-34
2024/02/28 07:03:44;;;;;;;15.55;11.20;;;4.60;90.70;;;;;;5094338;28;20024;-35
2024/02/28 07:06:10;;;;;;;16.85;11.65;;;4.60;90.70;;;;;;5092505;28;20020;-33
2024/02/28 07:08:36;;;;;;;16.98;11.40;;;4.60;90.70;;;;;;5094340;28;20047;-34
2024/02/28 07:11:02;;;;;;;18.75;11.73;;;4.60;90.70;;;;;;5094456;28;20016;-34
2024/02/28 07:13:28;;;;;;;18.60;11.18;;;4.60;90.70;;;;;;5094155;28;20051;-35
2024/02/28 07:15:54;;;;;;;19.40;13.25;;;4.70;90.70;;;;;;5094162;28;20031;-35
2024/02/28 07:18:20;;;;;;;18.40;12.10;;;4.70;90.70;;;;;;5094020;28;20049;-34
2024/02/28 07:20:46;;;;;;;17.25;12.60;;;4.80;90.70;;;;;;5094568;28;20105;-36
2024/02/28 07:23:12;;;;;;;18.38;12.50;;;4.80;90.70;;;;;;5093941;28;20078;-34
2024/02/28 07:25:37;;;;;;;17.20;12.13;;;4.80;90.60;;;;;;5093809;28;20460;-33
2024/02/28 07:28:03;;;;;;;19.58;12.80;;;4.90;90.60;;;;;;5094609;28;20023;-34
2024/02/28 07:30:29;;;;;;;19.17;12.50;;;5.00;90.60;;;;;;5093741;28;20404;-34
2024/02/28 07:32:55;;;;;;;17.90;12.48;;;5.00;90.50;;;;;;5094130;28;20465;-35
2024/02/28 07:35:21;;;;;;;17.88;12.25;;;5.00;90.50;;;;;;5093288;28;20040;-33
2024/02/28 07:37:48;;;;;;;20.55;13.13;;;5.10;90.50;;;;;;5093406;28;20134;-33
2024/02/28 07:40:14;;;;;;;19.40;13.23;;;5.10;90.50;;;;;;5093929;28;20107;-34
2024/02/28 07:42:40;;;;;;;18.50;13.15;;;5.10;90.40;;;;;;5093362;28;20024;-33
2024/02/28 07:45:08;;;;;;;18.50;12.38;;;5.10;90.50;;;;;;5093258;28;20038;-34
2024/02/28 07:47:34;;;;;;;18.45;13.05;;;5.20;90.50;;;;;;5093254;28;20031;-32
2024/02/28 07:49:59;;;;;;;20.58;14.82;;;5.20;90.50;;;;;;5093694;28;20424;-34
2024/02/28 07:52:25;;;;;;;24.23;15.98;;;5.30;90.50;;;;;;5093416;28;20024;-36
2024/02/28 07:54:50;;;;;;;23.42;16.05;;;5.30;90.40;;;;;;5091814;28;20020;-33
2024/02/28 07:57:17;;;;;;;22.75;15.82;;;5.30;90.40;;;;;;5093291;28;20031;-35
2024/02/28 07:59:43;;;;;;;24.10;15.52;;;5.40;90.30;;;;;;5093101;28;20042;-34
2024/02/28 08:02:11;;;;;;;23.17;15.27;;;5.50;90.30;;;;;;5093163;28;20020;-34
2024/02/28 08:04:37;;;;;;;24.45;15.55;;;5.50;90.30;;;;;;5091756;28;20050;-39
2024/02/28 08:07:03;;;;;;;24.13;15.50;;;5.60;90.20;;;;;;5093439;28;20024;-39
2024/02/28 08:09:28;;;;;;;25.50;15.88;;;5.60;90.10;;;;;;5093365;28;20027;-38
2024/02/28 08:11:54;;;;;;;24.95;15.25;;;5.70;90.10;;;;;;5093014;28;20024;-40
2024/02/28 08:14:21;;;;;;;24.48;15.00;;;5.70;90.30;;;;;;5093285;28;20502;-39
2024/02/28 08:16:46;;;;;;;22.65;14.80;;;5.70;90.10;;;;;;5093498;28;20024;-42
2024/02/28 08:19:17;;;;;;;24.00;15.52;;;5.80;90.00;;;;;;5091844;28;20507;-38
2024/02/28 08:21:43;;;;;;;22.80;14.68;;;5.80;90.00;;;;;;5092997;28;20016;-38
2024/02/28 08:24:08;;;;;;;22.88;14.25;;;5.90;90.00;;;;;;5093326;28;20035;-38
2024/02/28 08:26:35;;;;;;;24.08;14.82;;;6.00;90.00;;;;;;5091487;28;20507;-39
2024/02/28 08:29:01;;;;;;;23.38;15.05;;;6.00;90.00;;;;;;5093277;28;20024;-38
2024/02/28 08:31:27;;;;;;;24.65;14.48;;;6.10;90.00;;;;;;5093054;28;20065;-38
2024/02/28 08:33:55;;;;;;;22.70;14.65;;;6.20;89.90;;;;;;5092534;28;20044;-36
2024/02/28 08:36:21;;;;;;;22.92;15.50;;;6.30;89.90;;;;;;5092587;28;20036;-40
2024/02/28 08:38:46;;;;;;;22.48;14.27;;;6.40;90.10;;;;;;5092891;28;20038;-40
2024/02/28 08:41:12;;;;;;;22.90;14.50;;;6.40;89.60;;;;;;5092596;28;20419;-38
2024/02/28 08:43:40;;;;;;;24.58;15.38;;;6.50;89.60;;;;;;5092812;28;20103;-41
2024/02/28 08:46:06;;;;;;;25.52;15.65;;;6.50;89.50;;;;;;5092743;28;20059;-41
2024/02/28 08:48:33;;;;;;;25.98;14.98;;;6.60;89.50;;;;;;5092827;28;20024;-41
2024/02/28 08:50:58;;;;;;;26.40;15.88;;;6.60;89.40;;;;;;5092424;28;20115;-40
2024/02/28 08:53:24;;;;;;;26.42;16.88;;;6.60;89.40;;;;;;5092475;28;20219;-41
2024/02/28 08:55:49;;;;;;;25.27;15.18;;;6.60;89.40;;;;;;5092590;28;20475;-41
2024/02/28 08:58:15;;;;;;;25.80;16.10;;;6.60;89.30;;;;;;5090662;28;20077;-41
2024/02/28 09:00:41;;;;;;;27.15;16.27;;;6.70;89.40;;;;;;5092149;28;20032;-41
2024/02/28 09:03:06;;;;;;;31.35;17.67;;;6.70;89.20;;;;;;5092282;28;20059;-40
2024/02/28 09:05:32;;;;;;;29.80;17.20;;;6.80;89.20;;;;;;5092265;28;20107;-40
2024/02/28 09:07:58;;;;;;;28.48;16.77;;;6.80;89.10;;;;;;5091359;28;20169;-39
2024/02/28 09:10:24;;;;;;;29.35;17.15;;;6.90;89.10;;;;;;5092176;28;20028;-40
2024/02/28 09:12:50;;;;;;;29.10;16.52;;;7.00;89.00;;;;;;5092475;28;20117;-40
2024/02/28 09:15:16;;;;;;;27.63;17.10;;;7.00;88.90;;;;;;5092358;28;20035;-40
2024/02/28 09:17:41;;;;;;;30.63;18.05;;;7.10;89.00;;;;;;5092162;28;20028;-40
2024/02/28 09:20:08;;;;;;;34.25;18.75;;;7.20;89.00;;;;;;5090863;28;20077;-39
2024/02/28 09:22:34;;;;;;;26.63;17.27;;;7.20;88.80;;;;;;5092304;28;20488;-41
2024/02/28 09:25:03;;;;;;;28.20;17.27;;;7.20;88.70;;;;;;5092105;28;21899;-38
2024/02/28 09:27:29;;;;;;;29.52;16.50;;;7.20;88.80;;;;;;5090860;28;20392;-39
2024/02/28 09:29:55;;;;;;;28.48;17.48;;;7.10;88.70;;;;;;5092007;28;20476;-43
2024/02/28 09:32:21;;;;;;;29.85;18.42;;;7.10;88.80;;;;;;5092026;28;20039;-39
2024/02/28 09:34:47;;;;;;;29.45;17.73;;;7.00;88.80;;;;;;5091473;28;20040;-47
2024/02/28 09:37:13;;;;;;;27.92;17.77;;;7.00;88.90;;;;;;5091890;28;20036;-39
2024/02/28 09:39:39;;;;;;;31.80;18.38;;;7.00;88.90;;;;;;5091783;28;20020;-40
2024/02/28 09:42:07;;;;;;;29.20;18.45;;;7.00;89.00;;;;;;5090403;28;20024;-40
2024/02/28 09:44:33;;;;;;;28.77;17.50;;;6.90;89.00;;;;;;5091749;28;20066;-39
2024/02/28 09:46:59;;;;;;;27.00;16.63;;;6.90;89.10;;;;;;5091620;28;20114;-39
2024/02/28 09:49:26;;;;;;;28.10;17.10;;;6.90;89.30;;;;;;5091577;28;20111;-40
2024/02/28 09:51:52;;;;;;;27.50;17.17;;;6.90;89.40;;;;;;5090330;28;20025;-43
2024/02/28 09:54:18;;;;;;;27.67;17.30;;;7.00;89.40;;;;;;5091655;28;20051;-41
2024/02/28 09:56:44;;;;;;;26.67;17.45;;;7.00;89.40;;;;;;5091387;28;20024;-42
2024/02/28 09:59:11;;;;;;;29.63;17.83;;;7.00;89.40;;;;;;5091854;28;20527;-40
2024/02/28 10:01:47;;;;;;;29.38;17.92;;;7.10;89.40;;;;;;5091386;28;20085;-40
2024/02/28 10:04:13;;;;;;;30.75;18.77;;;7.20;89.40;;;;;;5091728;28;20028;-38
2024/02/28 10:06:42;;;;;;;30.80;19.55;;;7.30;89.30;;;;;;5091241;28;20160;-39
2024/02/28 10:09:07;;;;;;;27.38;18.85;;;7.40;89.00;;;;;;5091587;28;20048;-39
2024/02/28 10:11:35;;;;;;;32.97;20.05;;;7.50;88.90;;;;;;5094640;28;20455;-39
2024/02/28 10:14:02;;;;;;;32.13;18.67;;;7.60;88.90;;;;;;5095558;28;20039;-40
2024/02/28 10:16:28;;;;;;;29.90;18.75;;;7.60;88.80;;;;;;5095467;28;20024;-39
2024/02/28 10:18:53;;;;;;;30.35;19.52;;;7.70;88.80;;;;;;5095450;28;20748;-39
2024/02/28 10:21:19;;;;;;;30.60;21.08;;;7.70;88.70;;;;;;5095810;28;20114;-41
2024/02/28 10:23:45;;;;;;;30.25;20.00;;;7.70;88.70;;;;;;5095693;28;20036;-42
2024/02/28 10:26:12;;;;;;;30.67;19.70;;;7.80;88.80;;;;;;5095276;28;20115;-40
2024/02/28 10:28:39;;;;;;;29.88;20.52;;;7.90;88.70;;;;;;5095454;28;20484;-41
2024/02/28 10:31:08;;;;;;;31.63;19.63;;;8.00;88.50;;;;;;5095870;28;20032;-42
2024/02/28 10:33:35;;;;;;;32.70;20.75;;;8.00;88.30;;;;;;5095613;28;20103;-42
2024/02/28 10:36:03;;;;;;;29.33;19.63;;;8.00;88.20;;;;;;5095428;28;20036;-42
2024/02/28 10:38:33;;;;;;;31.80;18.95;;;8.10;88.30;;;;;;5095607;28;20150;-42
2024/02/28 10:41:02;;;;;;;29.88;19.27;;;8.20;88.30;;;;;;5094455;28;20024;-41
2024/02/28 10:43:29;;;;;;;28.50;20.27;;;8.20;88.10;;;;;;5095086;28;20024;-41
2024/02/28 10:45:57;;;;;;;30.38;19.50;;;8.30;88.10;;;;;;5095248;28;20056;-42
2024/02/28 10:48:24;;;;;;;30.50;19.60;;;8.30;87.90;;;;;;5095378;28;20057;-41
2024/02/28 10:50:51;;;;;;;29.15;19.55;;;8.30;88.00;;;;;;5095328;28;20028;-47
2024/02/28 10:53:23;;;;;;;30.25;20.08;;;8.40;88.00;;;;;;5093785;28;20074;-42
2024/02/28 10:55:49;;;;;;;24.43;18.00;;;8.40;88.00;;;;;;5095314;28;20384;-43
2024/02/28 10:58:15;;;;;;;28.20;19.90;;;8.50;88.00;;;;;;5094968;28;20039;-42
2024/02/28 11:00:45;;;;;;;28.50;20.17;;;8.50;87.90;;;;;;5094651;28;20016;-36
2024/02/28 11:03:15;;;;;;;29.80;19.38;;;8.40;87.80;;;;;;5094650;28;20038;-36
2024/02/28 11:05:42;;;;;;;27.50;19.30;;;8.40;87.80;;;;;;5094428;28;20032;-34
2024/02/28 11:08:10;;;;;;;26.77;19.30;;;8.40;87.80;;;;;;5094664;28;20024;-36
2024/02/28 11:10:35;;;;;;;27.40;18.83;;;8.40;87.90;;;;;;5094396;28;20028;-37
2024/02/28 11:13:01;;;;;;;26.48;18.67;;;8.40;87.80;;;;;;5094202;28;20388;-34
2024/02/28 11:15:27;;;;;;;30.33;19.45;;;8.40;87.80;;;;;;5094375;28;20141;-35
2024/02/28 11:17:53;;;;;;;29.23;19.27;;;8.40;87.90;;;;;;5094414;28;20020;-35
2024/02/28 11:20:19;;;;;;;32.97;21.02;;;8.50;87.90;;;;;;5092835;28;20028;-34
2024/02/28 11:22:45;;;;;;;30.25;20.35;;;8.50;87.80;;;;;;5091771;28;20132;-36
2024/02/28 11:25:11;;;;;;;29.05;19.15;;;8.60;87.80;;;;;;5093906;28;20086;-36
2024/02/28 11:27:49;;;;;;;29.42;19.02;;;8.70;87.80;;;;;;5093869;28;20393;-41
2024/02/28 11:30:15;;;;;;;30.50;20.30;;;8.80;87.70;;;;;;5094166;28;20401;-36
2024/02/28 11:32:42;;;;;;;29.73;19.35;;;8.80;87.70;;;;;;5093896;28;20031;-37
2024/02/28 11:35:08;;;;;;;27.45;18.90;;;8.90;87.60;;;;;;5093627;28;20059;-37
2024/02/28 11:37:34;;;;;;;29.05;19.05;;;8.90;87.50;;;;;;5093846;28;20476;-36
2024/02/28 11:39:59;;;;;;;31.10;20.17;;;8.90;87.40;;;;;;5092511;28;20024;-37
2024/02/28 11:42:25;;;;;;;30.45;19.83;;;9.00;87.50;;;;;;5092346;28;20059;-37
2024/02/28 11:44:57;;;;;;;30.00;19.15;;;9.00;87.50;;;;;;5093805;28;20052;-36
2024/02/28 11:47:23;;;;;;;26.38;18.95;;;9.00;87.40;;;;;;5093981;28;20020;-35
2024/02/28 11:49:49;;;;;;;29.40;21.15;;;9.00;87.40;;;;;;5093740;28;20404;-36
2024/02/28 11:52:15;;;;;;;28.23;19.40;;;9.00;87.40;;;;;;5093591;28;20123;-37
2024/02/28 11:54:40;;;;;;;28.90;20.00;;;8.90;87.40;;;;;;5093627;28;20125;-37
2024/02/28 11:57:07;;;;;;;31.05;20.10;;;8.90;87.50;;;;;;5093552;28;20028;-38
2024/02/28 11:59:33;;;;;;;31.08;19.38;;;8.90;87.60;;;;;;5093394;28;20032;-35
2024/02/28 12:01:59;;;;;;;29.27;19.27;;;8.90;87.70;;;;;;5093667;28;20039;-37
2024/02/28 12:04:25;;;;;;;26.13;18.95;;;8.90;87.70;;;;;;5093320;28;20039;-37
2024/02/28 12:06:51;;;;;;;28.48;19.30;;;9.00;87.80;;;;;;5093166;28;20056;-37
2024/02/28 12:09:18;;;;;;;27.67;18.90;;;9.00;87.80;;;;;;5093231;28;20058;-36
2024/02/28 12:11:43;;;;;;;27.02;18.15;;;9.10;87.80;;;;;;5093426;28;20464;-36
2024/02/28 12:14:09;;;;;;;26.92;19.40;;;9.10;87.70;;;;;;5092968;28;20027;-36
2024/02/28 12:16:41;;;;;;;27.27;18.67;;;9.30;87.80;;;;;;5092810;28;20108;-43
2024/02/28 12:19:11;;;;;;;27.13;18.00;;;9.30;87.60;;;;;;5093262;28;20030;-37
2024/02/28 12:21:38;;;;;;;25.13;17.30;;;9.30;87.50;;;;;;5092831;28;20024;-38
2024/02/28 12:24:11;;;;;;;23.70;16.55;;;9.40;87.50;;;;;;5093087;28;20052;-37
2024/02/28 12:26:38;;;;;;;24.85;17.10;;;9.30;87.60;;;;;;5092808;28;20545;-37
2024/02/28 12:29:03;;;;;;;24.70;17.27;;;9.30;87.60;;;;;;5092917;28;20108;-41
2024/02/28 12:31:29;;;;;;;26.33;18.40;;;9.30;87.60;;;;;;5093242;28;20048;-36